sensor_id;sensor_type;location;lat;lon;timestamp;P1;P2;P0
71794;PMS7003;59641;45.188;5.712;2023-10-09T00:00:51;7.40;6.00;4.00
71794;PMS7003;59641;45.188;5.712;2023-10-09T00:03:20;6.00;5.40;3.60
71794;PMS7003;59641;45.188;5.712;2023-10-09T00:05:50;7.80;7.80;5.40
71794;PMS7003;59641;45.188;5.712;2023-10-09T00:08:18;8.60;7.80;5.40
71794;PMS7003;59641;45.188;5.712;2023-10-09T00:10:49;6.60;6.00;4.00
71794;PMS7003;59641;45.188;5.712;2023-10-09T00:13:21;7.00;6.20;5.00
71794;PMS7003;59641;45.188;5.712;2023-10-09T00:15:56;7.00;7.00;4.20
71794;PMS7003;59641;45.188;5.712;2023-10-09T00:18:27;3.00;3.00;1.00
71794;PMS7003;59641;45.188;5.712;2023-10-09T00:20:58;9.00;7.40;4.60
71794;PMS7003;59641;45.188;5.712;2023-10-09T00:23:36;8.20;8.20;6.00
71794;PMS7003;59641;45.188;5.712;2023-10-09T00:26:02;7.75;6.75;5.25
71794;PMS7003;59641;45.188;5.712;2023-10-09T00:28:44;8.40;6.40;4.60
71794;PMS7003;59641;45.188;5.712;2023-10-09T00:31:12;9.80;8.80;5.20
71794;PMS7003;59641;45.188;5.712;2023-10-09T00:33:44;8.60;8.60;6.00
71794;PMS7003;59641;45.188;5.712;2023-10-09T00:36:10;8.60;8.00;5.40
71794;PMS7003;59641;45.188;5.712;2023-10-09T00:38:36;6.60;5.00;4.00
71794;PMS7003;59641;45.188;5.712;2023-10-09T00:41:10;8.80;7.00;5.20
71794;PMS7003;59641;45.188;5.712;2023-10-09T00:43:36;6.50;6.50;4.25
71794;PMS7003;59641;45.188;5.712;2023-10-09T00:46:05;8.40;7.00;6.00
71794;PMS7003;59641;45.188;5.712;2023-10-09T00:48:52;7.00;7.00;4.40
71794;PMS7003;59641;45.188;5.712;2023-10-09T00:51:20;7.40;6.60;6.00
71794;PMS7003;59641;45.188;5.712;2023-10-09T00:53:49;8.00;8.00;5.00
71794;PMS7003;59641;45.188;5.712;2023-10-09T00:56:18;9.40;7.00;4.80
71794;PMS7003;59641;45.188;5.712;2023-10-09T00:58:51;8.20;7.80;5.40
71794;PMS7003;59641;45.188;5.712;2023-10-09T01:01:24;8.80;7.00;4.00
71794;PMS7003;59641;45.188;5.712;2023-10-09T01:03:53;7.80;7.60;4.20
71794;PMS7003;59641;45.188;5.712;2023-10-09T01:06:19;6.00;6.00;3.75
71794;PMS7003;59641;45.188;5.712;2023-10-09T01:08:58;4.80;4.40;3.00
71794;PMS7003;59641;45.188;5.712;2023-10-09T01:11:36;5.00;5.00;3.80
71794;PMS7003;59641;45.188;5.712;2023-10-09T01:14:13;6.80;5.40;3.40
71794;PMS7003;59641;45.188;5.712;2023-10-09T01:16:39;5.20;4.60;3.80
71794;PMS7003;59641;45.188;5.712;2023-10-09T01:19:08;6.80;6.80;4.40
71794;PMS7003;59641;45.188;5.712;2023-10-09T01:21:50;6.20;5.60;4.00
71794;PMS7003;59641;45.188;5.712;2023-10-09T01:24:18;5.60;5.60;4.00
71794;PMS7003;59641;45.188;5.712;2023-10-09T01:26:45;7.20;5.40;4.00
71794;PMS7003;59641;45.188;5.712;2023-10-09T01:29:15;7.40;7.40;4.00
71794;PMS7003;59641;45.188;5.712;2023-10-09T01:31:45;9.60;7.00;4.40
71794;PMS7003;59641;45.188;5.712;2023-10-09T01:34:41;6.80;6.00;4.20
71794;PMS7003;59641;45.188;5.712;2023-10-09T01:37:17;7.80;5.40;3.80
71794;PMS7003;59641;45.188;5.712;2023-10-09T01:39:46;6.20;6.20;4.80
71794;PMS7003;59641;45.188;5.712;2023-10-09T01:42:14;6.80;6.60;5.00
71794;PMS7003;59641;45.188;5.712;2023-10-09T01:44:52;5.00;4.00;3.40
71794;PMS7003;59641;45.188;5.712;2023-10-09T01:47:18;8.00;7.00;4.00
71794;PMS7003;59641;45.188;5.712;2023-10-09T01:49:46;6.80;5.80;5.00
71794;PMS7003;59641;45.188;5.712;2023-10-09T01:52:14;9.40;8.00;5.00
71794;PMS7003;59641;45.188;5.712;2023-10-09T01:54:46;5.00;5.00;4.00
71794;PMS7003;59641;45.188;5.712;2023-10-09T01:57:16;6.00;6.00;4.00
71794;PMS7003;59641;45.188;5.712;2023-10-09T01:59:47;7.20;6.80;5.80
71794;PMS7003;59641;45.188;5.712;2023-10-09T02:02:15;7.75;7.25;5.00
71794;PMS7003;59641;45.188;5.712;2023-10-09T02:05:00;8.60;8.00;6.00
71794;PMS7003;59641;45.188;5.712;2023-10-09T02:07:39;9.00;8.20;6.00
71794;PMS7003;59641;45.188;5.712;2023-10-09T02:10:25;7.00;7.00;4.00
71794;PMS7003;59641;45.188;5.712;2023-10-09T02:12:57;6.80;5.60;4.00
71794;PMS7003;59641;45.188;5.712;2023-10-09T02:15:36;6.00;5.00;3.40
71794;PMS7003;59641;45.188;5.712;2023-10-09T02:20:49;5.20;5.20;4.40
71794;PMS7003;59641;45.188;5.712;2023-10-09T02:23:37;5.40;4.60;3.60
71794;PMS7003;59641;45.188;5.712;2023-10-09T02:26:05;5.00;4.80;3.00
71794;PMS7003;59641;45.188;5.712;2023-10-09T02:28:35;5.20;5.00;3.80
71794;PMS7003;59641;45.188;5.712;2023-10-09T02:31:01;6.80;5.40;3.80
71794;PMS7003;59641;45.188;5.712;2023-10-09T02:33:37;5.80;5.80;4.00
71794;PMS7003;59641;45.188;5.712;2023-10-09T02:36:06;7.00;5.60;4.00
71794;PMS7003;59641;45.188;5.712;2023-10-09T02:38:32;5.00;5.00;3.25
71794;PMS7003;59641;45.188;5.712;2023-10-09T02:41:03;8.00;4.60;3.60
71794;PMS7003;59641;45.188;5.712;2023-10-09T02:43:29;8.75;7.00;4.25
71794;PMS7003;59641;45.188;5.712;2023-10-09T02:46:11;5.60;5.60;4.40
71794;PMS7003;59641;45.188;5.712;2023-10-09T02:48:52;6.20;5.00;3.00
71794;PMS7003;59641;45.188;5.712;2023-10-09T02:51:18;3.20;3.00;3.00
71794;PMS7003;59641;45.188;5.712;2023-10-09T02:53:51;6.80;5.80;5.00
71794;PMS7003;59641;45.188;5.712;2023-10-09T02:56:21;8.80;6.00;4.80
71794;PMS7003;59641;45.188;5.712;2023-10-09T02:58:52;7.40;6.40;4.80
71794;PMS7003;59641;45.188;5.712;2023-10-09T03:01:18;6.00;5.60;4.80
71794;PMS7003;59641;45.188;5.712;2023-10-09T03:03:44;9.00;6.75;4.00
71794;PMS7003;59641;45.188;5.712;2023-10-09T03:06:10;6.80;6.60;4.60
71794;PMS7003;59641;45.188;5.712;2023-10-09T03:08:44;5.80;5.80;4.80
71794;PMS7003;59641;45.188;5.712;2023-10-09T03:11:12;8.60;7.00;4.40
71794;PMS7003;59641;45.188;5.712;2023-10-09T03:13:44;8.60;7.80;3.80
71794;PMS7003;59641;45.188;5.712;2023-10-09T03:16:11;7.60;5.20;5.00
71794;PMS7003;59641;45.188;5.712;2023-10-09T03:18:41;6.80;6.00;4.40
71794;PMS7003;59641;45.188;5.712;2023-10-09T03:21:07;5.25;4.75;3.50
71794;PMS7003;59641;45.188;5.712;2023-10-09T03:23:33;5.00;4.60;3.80
71794;PMS7003;59641;45.188;5.712;2023-10-09T03:25:59;8.75;7.75;5.25
71794;PMS7003;59641;45.188;5.712;2023-10-09T03:28:24;11.00;7.50;5.25
71794;PMS7003;59641;45.188;5.712;2023-10-09T03:30:50;9.25;9.25;5.25
71794;PMS7003;59641;45.188;5.712;2023-10-09T03:33:16;9.00;8.00;5.50
71794;PMS7003;59641;45.188;5.712;2023-10-09T03:35:42;10.00;8.80;5.20
71794;PMS7003;59641;45.188;5.712;2023-10-09T03:38:07;7.00;7.00;5.00
71794;PMS7003;59641;45.188;5.712;2023-10-09T03:40:54;9.00;8.20;5.40
71794;PMS7003;59641;45.188;5.712;2023-10-09T03:43:19;8.50;8.50;6.00
71794;PMS7003;59641;45.188;5.712;2023-10-09T03:45:46;9.20;7.00;4.60
71794;PMS7003;59641;45.188;5.712;2023-10-09T03:48:18;8.80;8.80;4.80
71794;PMS7003;59641;45.188;5.712;2023-10-09T03:50:57;7.00;7.00;4.00
71794;PMS7003;59641;45.188;5.712;2023-10-09T03:53:34;10.25;7.50;4.50
71794;PMS7003;59641;45.188;5.712;2023-10-09T03:56:04;7.80;6.40;4.80
71794;PMS7003;59641;45.188;5.712;2023-10-09T03:58:37;5.40;4.80;3.40
71794;PMS7003;59641;45.188;5.712;2023-10-09T04:01:07;8.20;7.40;5.20
71794;PMS7003;59641;45.188;5.712;2023-10-09T04:03:32;6.60;6.60;5.00
71794;PMS7003;59641;45.188;5.712;2023-10-09T04:06:00;8.40;8.00;4.80
71794;PMS7003;59641;45.188;5.712;2023-10-09T04:08:26;6.25;6.25;5.00
71794;PMS7003;59641;45.188;5.712;2023-10-09T04:10:55;5.80;5.80;4.20
71794;PMS7003;59641;45.188;5.712;2023-10-09T04:13:26;7.20;7.00;5.00
71794;PMS7003;59641;45.188;5.712;2023-10-09T04:15:59;7.20;6.40;4.00
71794;PMS7003;59641;45.188;5.712;2023-10-09T04:18:34;8.40;8.40;6.00
71794;PMS7003;59641;45.188;5.712;2023-10-09T04:21:03;7.00;7.00;4.00
71794;PMS7003;59641;45.188;5.712;2023-10-09T04:23:43;10.60;7.60;5.60
71794;PMS7003;59641;45.188;5.712;2023-10-09T04:26:33;6.80;6.80;5.00
71794;PMS7003;59641;45.188;5.712;2023-10-09T04:29:00;5.20;5.00;4.00
71794;PMS7003;59641;45.188;5.712;2023-10-09T04:31:27;7.20;7.20;5.00
71794;PMS7003;59641;45.188;5.712;2023-10-09T04:33:57;7.40;7.40;4.20
71794;PMS7003;59641;45.188;5.712;2023-10-09T04:36:42;6.40;6.20;4.00
71794;PMS7003;59641;45.188;5.712;2023-10-09T04:39:33;4.80;4.80;3.00
71794;PMS7003;59641;45.188;5.712;2023-10-09T04:41:58;9.00;6.75;4.00
71794;PMS7003;59641;45.188;5.712;2023-10-09T04:44:43;7.60;7.00;3.80
71794;PMS7003;59641;45.188;5.712;2023-10-09T04:47:30;5.20;5.20;3.00
71794;PMS7003;59641;45.188;5.712;2023-10-09T04:50:07;4.80;4.80;3.00
71794;PMS7003;59641;45.188;5.712;2023-10-09T04:52:39;4.40;4.40;2.20
71794;PMS7003;59641;45.188;5.712;2023-10-09T04:55:05;7.00;5.25;3.00
71794;PMS7003;59641;45.188;5.712;2023-10-09T04:57:34;3.40;3.40;2.80
71794;PMS7003;59641;45.188;5.712;2023-10-09T05:02:57;6.20;6.20;3.80
71794;PMS7003;59641;45.188;5.712;2023-10-09T05:05:29;5.60;5.60;4.00
71794;PMS7003;59641;45.188;5.712;2023-10-09T05:10:48;6.40;6.40;5.00
71794;PMS7003;59641;45.188;5.712;2023-10-09T05:13:21;5.40;5.40;4.00
71794;PMS7003;59641;45.188;5.712;2023-10-09T05:18:38;8.20;6.80;4.20
71794;PMS7003;59641;45.188;5.712;2023-10-09T05:21:04;8.25;8.25;5.50
71794;PMS7003;59641;45.188;5.712;2023-10-09T05:23:48;6.40;6.40;3.40
71794;PMS7003;59641;45.188;5.712;2023-10-09T05:26:17;7.00;7.00;3.75
71794;PMS7003;59641;45.188;5.712;2023-10-09T05:29:02;8.40;5.40;3.80
71794;PMS7003;59641;45.188;5.712;2023-10-09T05:31:44;6.60;6.60;3.80
71794;PMS7003;59641;45.188;5.712;2023-10-09T05:34:33;6.00;5.00;3.50
71794;PMS7003;59641;45.188;5.712;2023-10-09T05:37:03;6.75;5.00;3.50
71794;PMS7003;59641;45.188;5.712;2023-10-09T05:39:50;4.00;4.00;2.20
71794;PMS7003;59641;45.188;5.712;2023-10-09T05:42:25;6.40;6.00;4.00
71794;PMS7003;59641;45.188;5.712;2023-10-09T05:47:48;5.20;5.20;4.00
71794;PMS7003;59641;45.188;5.712;2023-10-09T05:50:27;4.00;4.00;3.40
71794;PMS7003;59641;45.188;5.712;2023-10-09T05:52:53;4.40;4.40;3.00
71794;PMS7003;59641;45.188;5.712;2023-10-09T05:55:21;6.80;6.40;4.00
71794;PMS7003;59641;45.188;5.712;2023-10-09T05:57:53;6.20;5.20;3.40
71794;PMS7003;59641;45.188;5.712;2023-10-09T06:00:24;7.00;7.00;5.00
71794;PMS7003;59641;45.188;5.712;2023-10-09T06:03:09;8.40;7.40;4.60
71794;PMS7003;59641;45.188;5.712;2023-10-09T06:05:47;9.40;7.80;6.00
71794;PMS7003;59641;45.188;5.712;2023-10-09T06:08:24;8.00;7.80;6.20
71794;PMS7003;59641;45.188;5.712;2023-10-09T06:11:09;8.00;8.00;6.00
71794;PMS7003;59641;45.188;5.712;2023-10-09T06:13:54;9.60;9.40;6.20
71794;PMS7003;59641;45.188;5.712;2023-10-09T06:16:38;10.25;10.25;8.50
71794;PMS7003;59641;45.188;5.712;2023-10-09T06:19:04;15.00;12.50;10.50
71794;PMS7003;59641;45.188;5.712;2023-10-09T06:21:44;11.25;9.00;6.50
71794;PMS7003;59641;45.188;5.712;2023-10-09T06:24:28;16.50;14.50;12.00
71794;PMS7003;59641;45.188;5.712;2023-10-09T06:27:07;13.25;13.25;10.00
71794;PMS7003;59641;45.188;5.712;2023-10-09T06:29:35;12.25;11.75;10.00
71794;PMS7003;59641;45.188;5.712;2023-10-09T06:32:16;12.40;12.40;10.40
71794;PMS7003;59641;45.188;5.712;2023-10-09T06:34:46;15.00;13.20;9.60
71794;PMS7003;59641;45.188;5.712;2023-10-09T06:37:16;15.25;13.75;10.25
71794;PMS7003;59641;45.188;5.712;2023-10-09T06:39:44;15.50;14.50;10.50
71794;PMS7003;59641;45.188;5.712;2023-10-09T06:42:30;9.00;9.00;8.00
71794;PMS7003;59641;45.188;5.712;2023-10-09T06:45:02;13.00;13.00;9.60
71794;PMS7003;59641;45.188;5.712;2023-10-09T06:47:33;8.00;6.00;5.75
71794;PMS7003;59641;45.188;5.712;2023-10-09T06:50:20;9.80;9.00;5.00
71794;PMS7003;59641;45.188;5.712;2023-10-09T06:52:46;8.25;8.00;6.00
71794;PMS7003;59641;45.188;5.712;2023-10-09T06:55:35;10.80;9.00;5.80
71794;PMS7003;59641;45.188;5.712;2023-10-09T06:58:20;12.60;8.00;5.80
71794;PMS7003;59641;45.188;5.712;2023-10-09T07:00:52;9.80;7.00;5.80
71794;PMS7003;59641;45.188;5.712;2023-10-09T07:03:37;6.40;6.00;5.00
71794;PMS7003;59641;45.188;5.712;2023-10-09T07:06:17;5.80;5.80;4.20
71794;PMS7003;59641;45.188;5.712;2023-10-09T07:08:55;8.00;7.40;5.00
71794;PMS7003;59641;45.188;5.712;2023-10-09T07:11:33;7.40;5.00;4.60
71794;PMS7003;59641;45.188;5.712;2023-10-09T07:14:05;6.40;6.00;4.80
71794;PMS7003;59641;45.188;5.712;2023-10-09T07:16:32;7.20;7.20;4.20
71794;PMS7003;59641;45.188;5.712;2023-10-09T07:19:06;8.20;7.60;5.00
71794;PMS7003;59641;45.188;5.712;2023-10-09T07:21:35;7.00;6.00;4.25
71794;PMS7003;59641;45.188;5.712;2023-10-09T07:24:04;6.80;6.80;5.80
71794;PMS7003;59641;45.188;5.712;2023-10-09T07:26:39;8.20;7.40;5.00
71794;PMS7003;59641;45.188;5.712;2023-10-09T07:29:13;8.80;7.60;5.60
71794;PMS7003;59641;45.188;5.712;2023-10-09T07:31:44;7.20;7.00;4.00
71794;PMS7003;59641;45.188;5.712;2023-10-09T07:34:22;8.00;8.00;5.40
71794;PMS7003;59641;45.188;5.712;2023-10-09T07:36:57;6.20;5.00;4.20
71794;PMS7003;59641;45.188;5.712;2023-10-09T07:39:28;3.80;3.20;1.40
71794;PMS7003;59641;45.188;5.712;2023-10-09T07:41:59;7.60;6.00;4.00
71794;PMS7003;59641;45.188;5.712;2023-10-09T07:44:40;7.40;7.40;4.40
71794;PMS7003;59641;45.188;5.712;2023-10-09T07:47:11;5.60;5.60;4.00
71794;PMS7003;59641;45.188;5.712;2023-10-09T07:49:43;9.00;7.20;3.60
71794;PMS7003;59641;45.188;5.712;2023-10-09T07:52:13;5.25;4.75;2.25
71794;PMS7003;59641;45.188;5.712;2023-10-09T07:54:39;7.80;7.80;5.00
71794;PMS7003;59641;45.188;5.712;2023-10-09T07:57:14;7.00;7.00;4.00
71794;PMS7003;59641;45.188;5.712;2023-10-09T07:59:41;7.40;7.20;5.00
71794;PMS7003;59641;45.188;5.712;2023-10-09T08:02:19;7.00;6.40;5.00
71794;PMS7003;59641;45.188;5.712;2023-10-09T08:04:56;8.60;6.00;4.60
71794;PMS7003;59641;45.188;5.712;2023-10-09T08:07:28;6.60;5.80;4.00
71794;PMS7003;59641;45.188;5.712;2023-10-09T08:10:03;7.20;6.00;5.00
71794;PMS7003;59641;45.188;5.712;2023-10-09T08:12:44;5.60;5.60;3.80
71794;PMS7003;59641;45.188;5.712;2023-10-09T08:15:22;7.40;6.40;4.00
71794;PMS7003;59641;45.188;5.712;2023-10-09T08:17:52;8.60;7.20;5.00
71794;PMS7003;59641;45.188;5.712;2023-10-09T08:20:39;8.00;8.00;5.40
71794;PMS7003;59641;45.188;5.712;2023-10-09T08:23:36;6.60;5.40;4.00
71794;PMS7003;59641;45.188;5.712;2023-10-09T08:26:15;6.20;6.20;4.60
71794;PMS7003;59641;45.188;5.712;2023-10-09T08:28:54;9.60;8.80;5.80
71794;PMS7003;59641;45.188;5.712;2023-10-09T08:31:40;9.20;8.00;5.00
71794;PMS7003;59641;45.188;5.712;2023-10-09T08:34:12;8.20;8.20;5.20
71794;PMS7003;59641;45.188;5.712;2023-10-09T08:36:49;7.80;7.80;5.20
71794;PMS7003;59641;45.188;5.712;2023-10-09T08:39:21;10.20;8.80;6.00
71794;PMS7003;59641;45.188;5.712;2023-10-09T08:41:53;7.20;7.20;5.00
71794;PMS7003;59641;45.188;5.712;2023-10-09T08:44:23;8.40;8.00;5.00
71794;PMS7003;59641;45.188;5.712;2023-10-09T08:46:52;14.20;12.60;7.60
71794;PMS7003;59641;45.188;5.712;2023-10-09T08:49:19;9.20;6.80;5.80
71794;PMS7003;59641;45.188;5.712;2023-10-09T08:51:46;7.00;6.00;5.00
71794;PMS7003;59641;45.188;5.712;2023-10-09T08:54:13;8.20;7.60;4.20
71794;PMS7003;59641;45.188;5.712;2023-10-09T08:56:40;5.60;4.80;3.80
71794;PMS7003;59641;45.188;5.712;2023-10-09T08:59:14;6.40;6.00;3.60
71794;PMS7003;59641;45.188;5.712;2023-10-09T09:01:43;10.00;6.75;5.00
71794;PMS7003;59641;45.188;5.712;2023-10-09T09:04:09;5.40;5.00;5.00
71794;PMS7003;59641;45.188;5.712;2023-10-09T09:06:36;5.60;4.80;3.40
71794;PMS7003;59641;45.188;5.712;2023-10-09T09:09:12;7.40;7.00;5.00
71794;PMS7003;59641;45.188;5.712;2023-10-09T09:11:41;6.60;5.20;4.40
71794;PMS7003;59641;45.188;5.712;2023-10-09T09:14:14;7.00;6.00;4.00
71794;PMS7003;59641;45.188;5.712;2023-10-09T09:16:44;5.00;5.00;4.00
71794;PMS7003;59641;45.188;5.712;2023-10-09T09:19:13;8.00;6.20;4.20
71794;PMS7003;59641;45.188;5.712;2023-10-09T09:21:43;8.00;4.80;3.60
71794;PMS7003;59641;45.188;5.712;2023-10-09T09:24:14;7.20;6.00;4.40
71794;PMS7003;59641;45.188;5.712;2023-10-09T09:26:56;6.20;6.20;5.00
71794;PMS7003;59641;45.188;5.712;2023-10-09T09:32:05;8.40;6.60;5.00
71794;PMS7003;59641;45.188;5.712;2023-10-09T09:34:44;8.40;6.60;4.00
71794;PMS7003;59641;45.188;5.712;2023-10-09T09:37:20;7.00;5.60;4.00
71794;PMS7003;59641;45.188;5.712;2023-10-09T09:39:49;6.20;4.80;3.20
71794;PMS7003;59641;45.188;5.712;2023-10-09T09:42:18;7.60;6.80;4.00
71794;PMS7003;59641;45.188;5.712;2023-10-09T09:44:49;7.00;4.20;4.00
71794;PMS7003;59641;45.188;5.712;2023-10-09T09:47:16;6.20;5.60;4.00
71794;PMS7003;59641;45.188;5.712;2023-10-09T09:49:50;8.80;7.40;5.00
71794;PMS7003;59641;45.188;5.712;2023-10-09T09:52:18;7.20;7.20;4.40
71794;PMS7003;59641;45.188;5.712;2023-10-09T09:54:44;6.50;5.25;3.00
71794;PMS7003;59641;45.188;5.712;2023-10-09T09:57:09;9.00;7.50;4.50
71794;PMS7003;59641;45.188;5.712;2023-10-09T09:59:40;3.80;3.80;3.20
71794;PMS7003;59641;45.188;5.712;2023-10-09T10:02:14;6.00;3.80;2.60
71794;PMS7003;59641;45.188;5.712;2023-10-09T10:04:47;8.20;6.00;4.00
71794;PMS7003;59641;45.188;5.712;2023-10-09T10:07:19;7.40;6.00;5.00
71794;PMS7003;59641;45.188;5.712;2023-10-09T10:09:47;6.80;4.00;3.00
71794;PMS7003;59641;45.188;5.712;2023-10-09T10:15:11;6.60;6.60;4.80
71794;PMS7003;59641;45.188;5.712;2023-10-09T10:20:26;9.20;6.40;5.00
71794;PMS7003;59641;45.188;5.712;2023-10-09T10:25:42;4.00;4.00;4.00
71794;PMS7003;59641;45.188;5.712;2023-10-09T10:31:07;8.80;7.20;4.80
71794;PMS7003;59641;45.188;5.712;2023-10-09T10:36:20;6.40;4.80;3.80
71794;PMS7003;59641;45.188;5.712;2023-10-09T10:39:01;6.40;5.20;4.00
71794;PMS7003;59641;45.188;5.712;2023-10-09T10:42:04;5.00;5.00;4.00
71794;PMS7003;59641;45.188;5.712;2023-10-09T10:44:31;8.80;7.20;5.00
71794;PMS7003;59641;45.188;5.712;2023-10-09T10:47:07;7.00;5.00;4.00
71794;PMS7003;59641;45.188;5.712;2023-10-09T10:49:59;3.40;3.40;2.60
71794;PMS7003;59641;45.188;5.712;2023-10-09T10:52:44;5.80;4.80;3.40
71794;PMS7003;59641;45.188;5.712;2023-10-09T10:55:10;8.00;5.50;4.00
71794;PMS7003;59641;45.188;5.712;2023-10-09T10:58:14;4.40;3.60;2.60
71794;PMS7003;59641;45.188;5.712;2023-10-09T11:00:51;7.20;5.20;4.00
71794;PMS7003;59641;45.188;5.712;2023-10-09T11:03:23;6.40;5.60;2.80
71794;PMS7003;59641;45.188;5.712;2023-10-09T11:06:01;7.00;6.00;3.00
71794;PMS7003;59641;45.188;5.712;2023-10-09T11:08:46;5.00;5.00;4.00
71794;PMS7003;59641;45.188;5.712;2023-10-09T11:11:33;6.20;5.00;3.20
71794;PMS7003;59641;45.188;5.712;2023-10-09T11:14:09;4.80;4.60;4.20
71794;PMS7003;59641;45.188;5.712;2023-10-09T11:16:39;4.00;3.20;2.00
71794;PMS7003;59641;45.188;5.712;2023-10-09T11:19:11;4.60;4.60;3.00
71794;PMS7003;59641;45.188;5.712;2023-10-09T11:21:58;4.00;3.00;2.60
71794;PMS7003;59641;45.188;5.712;2023-10-09T11:24:48;3.80;3.20;2.40
71794;PMS7003;59641;45.188;5.712;2023-10-09T11:27:26;3.40;3.40;2.00
71794;PMS7003;59641;45.188;5.712;2023-10-09T11:29:57;3.20;3.20;2.80
71794;PMS7003;59641;45.188;5.712;2023-10-09T11:32:30;5.40;4.00;4.00
71794;PMS7003;59641;45.188;5.712;2023-10-09T11:35:13;5.00;5.00;2.80
71794;PMS7003;59641;45.188;5.712;2023-10-09T11:37:55;5.40;5.40;3.00
71794;PMS7003;59641;45.188;5.712;2023-10-09T11:40:28;6.60;4.80;3.40
71794;PMS7003;59641;45.188;5.712;2023-10-09T11:43:01;5.80;5.40;3.40
71794;PMS7003;59641;45.188;5.712;2023-10-09T11:45:28;5.80;5.40;3.00
71794;PMS7003;59641;45.188;5.712;2023-10-09T11:47:55;5.75;5.00;3.00
71794;PMS7003;59641;45.188;5.712;2023-10-09T11:50:39;6.00;6.00;3.40
71794;PMS7003;59641;45.188;5.712;2023-10-09T11:53:19;5.40;4.40;4.00
71794;PMS7003;59641;45.188;5.712;2023-10-09T11:55:48;6.80;6.00;4.60
71794;PMS7003;59641;45.188;5.712;2023-10-09T11:58:15;8.00;4.60;4.00
71794;PMS7003;59641;45.188;5.712;2023-10-09T12:00:57;3.80;3.00;2.00
71794;PMS7003;59641;45.188;5.712;2023-10-09T12:03:30;4.80;4.80;3.80
71794;PMS7003;59641;45.188;5.712;2023-10-09T12:06:00;4.40;4.40;2.60
71794;PMS7003;59641;45.188;5.712;2023-10-09T12:08:33;5.60;3.20;2.20
71794;PMS7003;59641;45.188;5.712;2023-10-09T12:10:59;6.20;5.00;3.00
71794;PMS7003;59641;45.188;5.712;2023-10-09T12:13:29;4.60;4.60;3.20
71794;PMS7003;59641;45.188;5.712;2023-10-09T12:15:55;7.25;5.25;4.00
71794;PMS7003;59641;45.188;5.712;2023-10-09T12:18:20;5.25;5.25;4.50
71794;PMS7003;59641;45.188;5.712;2023-10-09T12:20:48;6.60;5.20;2.80
71794;PMS7003;59641;45.188;5.712;2023-10-09T12:23:21;5.60;4.40;3.60
71794;PMS7003;59641;45.188;5.712;2023-10-09T12:25:48;7.00;6.40;3.40
71794;PMS7003;59641;45.188;5.712;2023-10-09T12:28:14;4.20;4.20;3.00
71794;PMS7003;59641;45.188;5.712;2023-10-09T12:30:40;6.20;5.80;4.60
71794;PMS7003;59641;45.188;5.712;2023-10-09T12:33:06;7.00;4.80;2.40
71794;PMS7003;59641;45.188;5.712;2023-10-09T12:35:39;5.80;5.20;3.00
71794;PMS7003;59641;45.188;5.712;2023-10-09T12:38:05;4.20;3.60;2.00
71794;PMS7003;59641;45.188;5.712;2023-10-09T12:40:34;5.40;5.40;4.00
71794;PMS7003;59641;45.188;5.712;2023-10-09T12:43:00;5.20;5.20;2.00
71794;PMS7003;59641;45.188;5.712;2023-10-09T12:45:26;4.25;4.25;3.00
71794;PMS7003;59641;45.188;5.712;2023-10-09T12:47:54;3.75;3.75;3.00
71794;PMS7003;59641;45.188;5.712;2023-10-09T12:50:33;4.00;4.00;3.00
71794;PMS7003;59641;45.188;5.712;2023-10-09T12:53:00;7.00;6.60;4.00
71794;PMS7003;59641;45.188;5.712;2023-10-09T12:55:34;4.40;4.00;3.00
71794;PMS7003;59641;45.188;5.712;2023-10-09T12:58:09;6.40;5.80;3.60
71794;PMS7003;59641;45.188;5.712;2023-10-09T13:00:39;6.00;4.80;3.20
71794;PMS7003;59641;45.188;5.712;2023-10-09T13:03:09;3.00;2.00;2.00
71794;PMS7003;59641;45.188;5.712;2023-10-09T13:05:45;3.60;3.20;2.20
71794;PMS7003;59641;45.188;5.712;2023-10-09T13:08:22;5.20;2.60;2.20
71794;PMS7003;59641;45.188;5.712;2023-10-09T13:10:57;6.00;4.20;3.00
71794;PMS7003;59641;45.188;5.712;2023-10-09T13:13:33;5.20;4.00;3.00
71794;PMS7003;59641;45.188;5.712;2023-10-09T13:16:27;4.20;4.20;3.00
71794;PMS7003;59641;45.188;5.712;2023-10-09T13:18:53;5.50;4.00;2.50
71794;PMS7003;59641;45.188;5.712;2023-10-09T13:21:21;5.60;5.60;3.00
71794;PMS7003;59641;45.188;5.712;2023-10-09T13:23:51;6.20;5.00;3.00
71794;PMS7003;59641;45.188;5.712;2023-10-09T13:26:19;6.00;5.00;3.00
71794;PMS7003;59641;45.188;5.712;2023-10-09T13:28:49;8.60;8.60;6.00
71794;PMS7003;59641;45.188;5.712;2023-10-09T13:31:17;9.80;9.80;5.80
71794;PMS7003;59641;45.188;5.712;2023-10-09T13:33:43;8.00;6.00;4.40
71794;PMS7003;59641;45.188;5.712;2023-10-09T13:36:10;7.60;7.00;5.00
71794;PMS7003;59641;45.188;5.712;2023-10-09T13:38:44;11.60;11.60;7.40
71794;PMS7003;59641;45.188;5.712;2023-10-09T13:41:10;9.00;9.00;6.00
71794;PMS7003;59641;45.188;5.712;2023-10-09T13:43:40;8.60;7.00;4.80
71794;PMS7003;59641;45.188;5.712;2023-10-09T13:46:08;15.20;12.60;7.80
71794;PMS7003;59641;45.188;5.712;2023-10-09T13:48:34;13.00;11.00;7.00
71794;PMS7003;59641;45.188;5.712;2023-10-09T13:51:03;9.60;8.80;5.60
71794;PMS7003;59641;45.188;5.712;2023-10-09T13:53:33;8.00;7.40;5.60
71794;PMS7003;59641;45.188;5.712;2023-10-09T13:56:01;15.60;14.40;9.00
71794;PMS7003;59641;45.188;5.712;2023-10-09T13:58:28;12.40;11.20;7.60
71794;PMS7003;59641;45.188;5.712;2023-10-09T14:00:53;10.75;10.75;7.00
71794;PMS7003;59641;45.188;5.712;2023-10-09T14:03:18;6.00;6.00;4.00
71794;PMS7003;59641;45.188;5.712;2023-10-09T14:05:48;6.60;5.00;3.20
71794;PMS7003;59641;45.188;5.712;2023-10-09T14:08:21;2.80;2.00;1.00
71794;PMS7003;59641;45.188;5.712;2023-10-09T14:10:48;9.25;8.50;5.50
71794;PMS7003;59641;45.188;5.712;2023-10-09T14:13:14;7.40;7.20;5.80
71794;PMS7003;59641;45.188;5.712;2023-10-09T14:15:41;15.00;14.00;9.60
71794;PMS7003;59641;45.188;5.712;2023-10-09T14:18:08;12.00;12.00;7.40
71794;PMS7003;59641;45.188;5.712;2023-10-09T14:20:36;9.60;9.00;6.00
71794;PMS7003;59641;45.188;5.712;2023-10-09T14:23:06;9.20;7.60;5.80
71794;PMS7003;59641;45.188;5.712;2023-10-09T14:25:35;7.25;7.00;4.50
71794;PMS7003;59641;45.188;5.712;2023-10-09T14:28:03;5.80;4.80;3.80
71794;PMS7003;59641;45.188;5.712;2023-10-09T14:30:32;6.80;6.20;4.20
71794;PMS7003;59641;45.188;5.712;2023-10-09T14:33:13;5.20;5.20;4.00
71794;PMS7003;59641;45.188;5.712;2023-10-09T14:35:44;4.20;4.20;3.00
71794;PMS7003;59641;45.188;5.712;2023-10-09T14:38:10;3.80;3.80;3.00
71794;PMS7003;59641;45.188;5.712;2023-10-09T14:40:43;5.60;4.40;3.00
71794;PMS7003;59641;45.188;5.712;2023-10-09T14:43:10;5.00;5.00;3.00
71794;PMS7003;59641;45.188;5.712;2023-10-09T14:45:52;5.00;4.60;3.20
71794;PMS7003;59641;45.188;5.712;2023-10-09T14:48:18;5.60;4.00;3.00
71794;PMS7003;59641;45.188;5.712;2023-10-09T14:50:50;4.40;4.40;3.00
71794;PMS7003;59641;45.188;5.712;2023-10-09T14:53:19;5.40;5.40;2.80
71794;PMS7003;59641;45.188;5.712;2023-10-09T14:56:01;4.60;4.60;3.00
71794;PMS7003;59641;45.188;5.712;2023-10-09T14:58:28;7.40;5.60;3.00
71794;PMS7003;59641;45.188;5.712;2023-10-09T15:00:55;3.80;3.20;3.00
71794;PMS7003;59641;45.188;5.712;2023-10-09T15:03:21;5.00;5.00;3.00
71794;PMS7003;59641;45.188;5.712;2023-10-09T15:05:48;5.40;5.00;2.60
71794;PMS7003;59641;45.188;5.712;2023-10-09T15:08:14;8.00;7.60;4.00
71794;PMS7003;59641;45.188;5.712;2023-10-09T15:10:46;6.75;6.75;4.25
71794;PMS7003;59641;45.188;5.712;2023-10-09T15:13:13;5.20;5.20;4.00
71794;PMS7003;59641;45.188;5.712;2023-10-09T15:15:41;5.00;5.00;3.00
71794;PMS7003;59641;45.188;5.712;2023-10-09T15:18:10;4.40;3.80;2.40
71794;PMS7003;59641;45.188;5.712;2023-10-09T15:20:39;2.00;2.00;2.00
71794;PMS7003;59641;45.188;5.712;2023-10-09T15:23:05;5.60;3.60;2.40